Time;durP1;ratioP1;P1;durP2;ratioP2;P2;SDS_P1;SDS_P2;PMS_P1;PMS_P2;Temp;Humidity;BMP_temperature;BMP_pressure;BME280_temperature;BME280_humidity;BME280_pressure;Samples;Min_cycle;Max_cycle;Signal;HPM_P1;HPM_P2
2023/06/20 00:02:11;;;;;;;36.60;23.37;;;;;;;;;;6253987;28;20500;-56
2023/06/20 00:05:12;;;;;;;39.13;23.63;;;;;;;;;;6252631;28;20199;-58
2023/06/20 00:08:12;;;;;;;41.93;23.83;;;;;;;;;;6256950;28;20103;-58
2023/06/20 00:11:13;;;;;;;39.00;23.63;;;;;;;;;;6259484;28;20042;-57
2023/06/20 00:14:14;;;;;;;40.80;24.23;;;;;;;;;;6260651;28;20412;-56
2023/06/20 00:17:14;;;;;;;42.43;25.13;;;;;;;;;;6257707;28;20056;-58
2023/06/20 00:20:15;;;;;;;42.10;24.50;;;;;;;;;;6257720;28;20056;-58
2023/06/20 00:23:16;;;;;;;42.47;23.27;;;;;;;;;;6260259;28;20250;-59
2023/06/20 00:26:16;;;;;;;40.00;24.53;;;;;;;;;;6259051;28;20732;-56
2023/06/20 00:29:17;;;;;;;40.40;23.63;;;;;;;;;;6258317;28;20850;-59
2023/06/20 00:32:18;;;;;;;41.43;24.33;;;;;;;;;;6256892;28;20049;-58
2023/06/20 00:35:18;;;;;;;40.27;24.17;;;;;;;;;;6257352;28;20041;-56
2023/06/20 00:38:19;;;;;;;40.67;24.07;;;;;;;;;;6258553;28;20045;-57
2023/06/20 00:41:21;;;;;;;42.27;24.97;;;;;;;;;;6260428;28;20496;-58
2023/06/20 00:44:21;;;;;;;40.22;24.13;;;;;;;;;;6262191;28;20059;-56
2023/06/20 00:47:23;;;;;;;45.60;23.80;;;;;;;;;;6256725;28;20064;-58
2023/06/20 00:50:27;;;;;;;40.22;23.52;;;;;;;;;;6258866;28;20053;-58
2023/06/20 00:53:28;;;;;;;42.65;24.15;;;;;;;;;;6257474;28;20587;-59
2023/06/20 00:56:29;;;;;;;38.63;24.17;;;;;;;;;;6259139;28;20045;-58
2023/06/20 00:59:30;;;;;;;41.17;24.83;;;;;;;;;;6263841;28;20041;-59
2023/06/20 01:02:30;;;;;;;39.97;24.23;;;;;;;;;;6258222;28;20488;-58
2023/06/20 01:05:31;;;;;;;42.40;24.50;;;;;;;;;;6256795;28;20079;-58
2023/06/20 01:08:39;;;;;;;38.97;23.90;;;;;;;;;;6256718;28;20171;-58
2023/06/20 01:11:57;;;;;;;39.25;24.10;;;;;;;;;;6256359;28;20524;-58
2023/06/20 01:15:35;;;;;;;39.65;23.73;;;;;;;;;;6256057;28;20033;-54
2023/06/20 01:18:54;;;;;;;37.95;23.70;;;;;;;;;;6252139;28;20132;-59
2023/06/20 01:22:05;;;;;;;39.58;24.30;;;;;;;;;;6258784;28;20090;-57
2023/06/20 01:25:11;;;;;;;41.35;25.45;;;;;;;;;;6262120;28;20581;-58
2023/06/20 01:28:40;;;;;;;38.83;23.92;;;;;;;;;;6255726;28;20037;-57
2023/06/20 01:31:47;;;;;;;37.67;24.65;;;;;;;;;;6255042;28;20049;-60
2023/06/20 01:34:52;;;;;;;42.58;24.63;;;;;;;;;;6256866;28;20073;-58
2023/06/20 01:37:59;;;;;;;40.13;24.40;;;;;;;;;;6256644;28;21717;-58
2023/06/20 01:41:02;;;;;;;39.42;24.60;;;;;;;;;;6262618;28;20051;-59
2023/06/20 01:44:06;;;;;;;41.97;25.00;;;;;;;;;;6257014;28;20182;-59
2023/06/20 01:47:09;;;;;;;41.75;24.42;;;;;;;;;;6256470;28;20136;-58
2023/06/20 01:50:12;;;;;;;37.70;23.83;;;;;;;;;;6258313;28;20882;-56
2023/06/20 01:53:14;;;;;;;44.47;26.27;;;;;;;;;;6256989;28;20053;-58
2023/06/20 01:56:17;;;;;;;41.75;25.85;;;;;;;;;;6256097;28;20052;-57
2023/06/20 01:59:19;;;;;;;42.92;25.08;;;;;;;;;;6256079;28;20056;-59
2023/06/20 02:02:20;;;;;;;;;;;;;;;;;;6254357;28;21448;-58
2023/06/20 02:05:22;;;;;;;40.90;24.30;;;;;;;;;;6257323;28;19925;-58
2023/06/20 02:08:25;;;;;;;40.67;26.20;;;;;;;;;;6256851;28;20043;-58
2023/06/20 02:11:27;;;;;;;42.72;26.42;;;;;;;;;;6255901;28;20075;-58
2023/06/20 02:14:28;;;;;;;46.30;26.65;;;;;;;;;;6254866;28;20049;-59
2023/06/20 02:17:30;;;;;;;46.33;26.13;;;;;;;;;;6254437;28;20080;-58
2023/06/20 02:20:31;;;;;;;40.42;25.98;;;;;;;;;;6255654;28;20053;-58
2023/06/20 02:23:33;;;;;;;45.53;26.80;;;;;;;;;;6253665;28;20562;-56
2023/06/20 02:26:39;;;;;;;41.60;25.50;;;;;;;;;;6254960;28;20045;-58
2023/06/20 02:29:41;;;;;;;41.67;25.15;;;;;;;;;;6254445;28;20051;-58
2023/06/20 02:32:44;;;;;;;42.92;25.17;;;;;;;;;;6254082;28;20053;-58
2023/06/20 02:35:45;;;;;;;45.28;27.55;;;;;;;;;;6254863;28;20481;-56
2023/06/20 02:38:46;;;;;;;43.42;26.98;;;;;;;;;;6256371;28;20167;-59
2023/06/20 02:41:47;;;;;;;41.47;25.98;;;;;;;;;;6255644;28;20491;-58
2023/06/20 02:44:48;;;;;;;44.63;26.85;;;;;;;;;;6253691;28;21155;-56
2023/06/20 02:48:07;;;;;;;42.77;26.17;;;;;;;;;;6259885;28;20044;-59
2023/06/20 02:51:15;;;;;;;42.35;26.58;;;;;;;;;;6255709;28;20037;-59
2023/06/20 02:54:32;;;;;;;41.53;26.05;;;;;;;;;;6257015;28;20071;-57
2023/06/20 02:57:36;;;;;;;41.58;25.08;;;;;;;;;;6260192;28;20049;-59
2023/06/20 03:00:38;;;;;;;44.30;26.55;;;;;;;;;;6255362;28;20484;-58
2023/06/20 03:03:44;;;;;;;41.20;25.40;;;;;;;;;;6256272;28;20051;-58
2023/06/20 03:06:51;;;;;;;45.42;26.15;;;;;;;;;;6252414;28;20051;-57
2023/06/20 03:09:53;;;;;;;42.63;26.83;;;;;;;;;;6255403;28;20049;-59
2023/06/20 03:12:54;;;;;;;45.17;26.75;;;;;;;;;;6253918;28;20049;-59
2023/06/20 03:15:55;;;;;;;46.20;26.67;;;;;;;;;;6254592;28;20486;-58
2023/06/20 03:18:55;;;;;;;45.57;27.00;;;;;;;;;;6254901;28;20045;-59
2023/06/20 03:21:56;;;;;;;44.65;26.88;;;;;;;;;;6256094;28;20413;-57
2023/06/20 03:24:56;;;;;;;41.65;25.33;;;;;;;;;;6253859;28;20088;-58
2023/06/20 03:27:57;;;;;;;43.60;26.55;;;;;;;;;;6260330;28;20492;-58
2023/06/20 03:30:57;;;;;;;42.47;25.97;;;;;;;;;;6262769;28;20503;-59
2023/06/20 03:33:58;;;;;;;43.60;25.75;;;;;;;;;;6264002;28;20408;-58
2023/06/20 03:36:59;;;;;;;43.83;25.83;;;;;;;;;;6263460;28;20060;-59
2023/06/20 03:40:00;;;;;;;49.50;27.52;;;;;;;;;;6253531;28;20052;-58
2023/06/20 03:43:00;;;;;;;49.33;28.60;;;;;;;;;;6254205;28;20045;-59
2023/06/20 03:46:01;;;;;;;42.30;27.10;;;;;;;;;;6256249;28;20507;-59
2023/06/20 03:49:02;;;;;;;50.53;26.92;;;;;;;;;;6260100;28;20058;-58
2023/06/20 03:52:03;;;;;;;45.07;27.33;;;;;;;;;;6257880;28;20044;-59
2023/06/20 03:55:03;;;;;;;47.80;28.42;;;;;;;;;;6258085;28;20051;-59
2023/06/20 03:58:04;;;;;;;45.70;28.27;;;;;;;;;;6256951;28;20045;-59
2023/06/20 04:01:06;;;;;;;44.93;28.53;;;;;;;;;;6256130;28;20575;-58
2023/06/20 04:04:06;;;;;;;;;;;;;;;;;;6256015;28;20044;-58
2023/06/20 04:07:10;;;;;;;47.50;28.27;;;;;;;;;;6254463;28;19924;-59
2023/06/20 04:10:12;;;;;;;43.75;27.40;;;;;;;;;;6258500;28;20051;-59
2023/06/20 04:13:12;;;;;;;47.78;29.55;;;;;;;;;;6256260;28;20053;-59
2023/06/20 04:16:13;;;;;;;49.30;28.05;;;;;;;;;;6253886;28;20495;-58
2023/06/20 04:19:14;;;;;;;49.10;29.77;;;;;;;;;;6255835;28;20452;-57
2023/06/20 04:22:15;;;;;;;49.13;30.30;;;;;;;;;;6256468;28;20045;-59
2023/06/20 04:25:16;;;;;;;51.20;30.40;;;;;;;;;;6255027;28;20512;-59
2023/06/20 04:28:17;;;;;;;52.10;30.88;;;;;;;;;;6256071;28;20489;-59
2023/06/20 04:31:17;;;;;;;50.60;30.70;;;;;;;;;;6257028;28;20057;-59
2023/06/20 04:34:23;;;;;;;51.23;31.13;;;;;;;;;;6254810;28;20045;-59
2023/06/20 04:37:24;;;;;;;50.90;31.95;;;;;;;;;;6253924;28;20037;-59
2023/06/20 04:40:26;;;;;;;52.43;31.50;;;;;;;;;;6256507;28;20400;-59
2023/06/20 04:43:27;;;;;;;51.67;31.00;;;;;;;;;;6255430;28;20083;-60
2023/06/20 04:46:28;;;;;;;52.40;31.13;;;;;;;;;;6255921;28;20048;-58
2023/06/20 04:49:28;;;;;;;46.57;30.23;;;;;;;;;;6255887;28;20870;-58
2023/06/20 04:52:32;;;;;;;43.90;29.27;;;;;;;;;;6255720;28;20049;-58
2023/06/20 04:55:32;;;;;;;46.28;29.17;;;;;;;;;;6260663;28;20048;-58
2023/06/20 04:58:33;;;;;;;45.47;28.20;;;;;;;;;;6265628;28;20453;-58
2023/06/20 05:01:34;;;;;;;41.77;27.57;;;;;;;;;;6262291;28;20049;-58
2023/06/20 05:04:36;;;;;;;42.47;26.75;;;;;;;;;;6255667;28;20051;-57
2023/06/20 05:07:40;;;;;;;42.35;25.92;;;;;;;;;;6262661;28;20041;-58
2023/06/20 05:10:40;;;;;;;41.22;24.52;;;;;;;;;;6262789;28;20144;-55
2023/06/20 05:13:41;;;;;;;43.27;23.47;;;;;;;;;;6261717;28;20048;-59
2023/06/20 05:16:41;;;;;;;37.90;24.17;;;;;;;;;;6261612;28;20096;-57
2023/06/20 05:19:42;;;;;;;43.73;25.97;;;;;;;;;;6264962;28;20049;-57
2023/06/20 05:22:43;;;;;;;39.90;23.27;;;;;;;;;;6265128;28;20103;-58
2023/06/20 05:25:43;;;;;;;36.80;22.90;;;;;;;;;;6264878;28;20057;-57
2023/06/20 05:28:44;;;;;;;35.03;23.60;;;;;;;;;;6259621;28;20053;-58
2023/06/20 05:31:44;;;;;;;38.40;24.00;;;;;;;;;;6262259;28;20045;-58
2023/06/20 05:34:45;;;;;;;36.67;24.37;;;;;;;;;;6258654;28;20073;-58
2023/06/20 05:37:49;;;;;;;36.27;22.27;;;;;;;;;;6257628;28;20591;-58
2023/06/20 05:40:51;;;;;;;34.60;22.15;;;;;;;;;;6257985;28;20657;-58
2023/06/20 05:43:52;;;;;;;33.92;22.85;;;;;;;;;;6257569;28;20464;-58
2023/06/20 05:46:53;;;;;;;36.30;22.40;;;;;;;;;;6257319;28;20045;-58
2023/06/20 05:49:57;;;;;;;35.73;23.17;;;;;;;;;;6258036;28;20060;-58
2023/06/20 05:52:57;;;;;;;34.25;22.83;;;;;;;;;;6256574;28;20110;-57
2023/06/20 05:55:58;;;;;;;39.17;23.43;;;;;;;;;;6258599;28;20984;-59
2023/06/20 05:58:59;;;;;;;37.07;23.20;;;;;;;;;;6254743;28;20144;-57
2023/06/20 06:01:59;;;;;;;36.00;23.47;;;;;;;;;;6257940;28;20060;-58
2023/06/20 06:05:00;;;;;;;37.25;22.65;;;;;;;;;;6254488;28;20084;-59
2023/06/20 06:08:00;;;;;;;36.40;23.13;;;;;;;;;;6256044;28;20041;-59
2023/06/20 06:11:02;;;;;;;35.60;22.23;;;;;;;;;;6256152;28;21253;-59
2023/06/20 06:14:02;;;;;;;35.60;22.77;;;;;;;;;;6254858;28;20030;-59
2023/06/20 06:17:03;;;;;;;35.00;23.40;;;;;;;;;;6253986;28;21391;-59
2023/06/20 06:20:09;;;;;;;34.03;22.73;;;;;;;;;;6254823;28;20824;-58
2023/06/20 06:23:10;;;;;;;35.55;23.88;;;;;;;;;;6256220;28;20045;-58
2023/06/20 06:26:11;;;;;;;40.80;23.43;;;;;;;;;;6254411;28;20441;-58
2023/06/20 06:29:12;;;;;;;38.72;24.65;;;;;;;;;;6254411;28;20059;-56
2023/06/20 06:32:13;;;;;;;42.67;25.20;;;;;;;;;;6256614;28;20048;-59
2023/06/20 06:35:17;;;;;;;36.15;24.73;;;;;;;;;;6266225;28;20052;-58
2023/06/20 06:38:18;;;;;;;39.30;22.92;;;;;;;;;;6254634;28;20424;-57
2023/06/20 06:41:19;;;;;;;37.47;22.57;;;;;;;;;;6262738;28;20048;-58
2023/06/20 06:44:19;;;;;;;34.83;21.17;;;;;;;;;;6261336;28;20761;-57
2023/06/20 06:47:20;;;;;;;34.40;21.90;;;;;;;;;;6260835;28;20052;-58
2023/06/20 06:50:20;;;;;;;35.50;21.20;;;;;;;;;;6256572;28;20051;-58
2023/06/20 06:53:21;;;;;;;33.83;21.23;;;;;;;;;;6255093;28;20566;-58
2023/06/20 06:56:22;;;;;;;35.00;22.50;;;;;;;;;;6252376;28;20044;-59
2023/06/20 06:59:22;;;;;;;33.07;21.77;;;;;;;;;;6254372;28;20071;-56
2023/06/20 07:02:23;;;;;;;37.07;22.53;;;;;;;;;;6256274;28;20488;-58
2023/06/20 07:05:24;;;;;;;33.17;21.63;;;;;;;;;;6254990;28;20037;-59
2023/06/20 07:08:24;;;;;;;31.20;20.70;;;;;;;;;;6254398;28;20052;-59
2023/06/20 07:11:25;;;;;;;28.57;19.83;;;;;;;;;;6254885;28;20051;-59
2023/06/20 07:14:26;;;;;;;31.30;20.57;;;;;;;;;;6253516;28;20091;-59
2023/06/20 07:17:27;;;;;;;34.10;21.05;;;;;;;;;;6252375;28;20519;-59
2023/06/20 07:20:27;;;;;;;26.83;19.57;;;;;;;;;;6254408;28;20045;-59
2023/06/20 07:23:28;;;;;;;31.47;20.43;;;;;;;;;;6257254;28;20068;-59
2023/06/20 07:26:29;;;;;;;30.08;19.80;;;;;;;;;;6251904;28;20076;-59
2023/06/20 07:29:29;;;;;;;31.60;20.80;;;;;;;;;;6252611;28;20072;-57
2023/06/20 07:32:30;;;;;;;33.43;21.00;;;;;;;;;;6255144;28;20516;-59
2023/06/20 07:35:30;;;;;;;34.77;20.50;;;;;;;;;;6252993;28;20057;-58
2023/06/20 07:38:31;;;;;;;32.37;22.20;;;;;;;;;;6254860;28;20503;-58
2023/06/20 07:41:32;;;;;;;32.87;20.07;;;;;;;;;;6255123;28;20606;-58
2023/06/20 07:44:32;;;;;;;31.40;20.27;;;;;;;;;;6254625;28;20051;-59
2023/06/20 07:47:33;;;;;;;33.93;21.57;;;;;;;;;;6254410;28;20043;-58
2023/06/20 07:50:33;;;;;;;34.73;21.93;;;;;;;;;;6254635;28;20111;-58
2023/06/20 07:53:34;;;;;;;35.53;21.47;;;;;;;;;;6255197;28;20041;-59
2023/06/20 07:56:34;;;;;;;33.23;22.13;;;;;;;;;;6254809;28;20468;-59
2023/06/20 07:59:35;;;;;;;29.37;20.00;;;;;;;;;;6254501;28;20467;-59
2023/06/20 08:02:36;;;;;;;31.47;20.43;;;;;;;;;;6254984;28;20096;-58
2023/06/20 08:05:36;;;;;;;27.73;18.87;;;;;;;;;;6253981;28;20047;-58
2023/06/20 08:08:38;;;;;;;31.47;19.83;;;;;;;;;;6251705;28;20306;-59
2023/06/20 08:11:38;;;;;;;28.95;19.10;;;;;;;;;;6254137;28;20037;-59
2023/06/20 08:14:39;;;;;;;25.00;17.70;;;;;;;;;;6253624;28;20049;-59
2023/06/20 08:17:40;;;;;;;30.63;18.70;;;;;;;;;;6251819;28;20645;-59
2023/06/20 08:20:41;;;;;;;27.90;18.47;;;;;;;;;;6254774;28;20044;-59
2023/06/20 08:23:44;;;;;;;28.38;17.98;;;;;;;;;;6252055;28;21309;-60
2023/06/20 08:26:44;;;;;;;28.58;18.27;;;;;;;;;;6252925;28;20849;-59
2023/06/20 08:29:45;;;;;;;27.40;17.77;;;;;;;;;;6258137;28;20514;-58
2023/06/20 08:32:45;;;;;;;29.60;18.03;;;;;;;;;;6258093;28;20091;-59
2023/06/20 08:35:47;;;;;;;26.70;17.88;;;;;;;;;;6255380;28;20053;-59
2023/06/20 08:38:47;;;;;;;25.23;17.65;;;;;;;;;;6256357;28;20128;-58
2023/06/20 08:41:51;;;;;;;27.37;17.37;;;;;;;;;;6259647;28;20186;-58
2023/06/20 08:44:52;;;;;;;24.08;16.75;;;;;;;;;;6257629;28;20308;-59
2023/06/20 08:47:58;;;;;;;24.65;17.00;;;;;;;;;;6255857;28;20041;-58
2023/06/20 08:50:59;;;;;;;29.48;17.77;;;;;;;;;;6255522;28;20045;-58
2023/06/20 08:54:02;;;;;;;31.13;18.13;;;;;;;;;;6257944;28;20522;-59
2023/06/20 08:57:06;;;;;;;29.23;18.38;;;;;;;;;;6255302;28;20399;-58
2023/06/20 09:00:11;;;;;;;26.00;17.83;;;;;;;;;;6257095;28;20057;-58
2023/06/20 09:03:11;;;;;;;23.35;16.33;;;;;;;;;;6256276;28;20049;-58
2023/06/20 09:06:12;;;;;;;29.48;17.25;;;;;;;;;;6257622;28;20107;-58
2023/06/20 09:09:17;;;;;;;28.40;17.58;;;;;;;;;;6257330;28;20040;-59
2023/06/20 09:12:18;;;;;;;25.30;16.92;;;;;;;;;;6257374;28;20050;-59
2023/06/20 09:15:20;;;;;;;25.00;17.20;;;;;;;;;;6258971;28;20163;-59
2023/06/20 09:18:24;;;;;;;27.50;18.92;;;;;;;;;;6258076;28;20484;-59
2023/06/20 09:21:24;;;;;;;24.70;17.45;;;;;;;;;;6258026;28;20053;-59
2023/06/20 09:24:25;;;;;;;28.15;18.17;;;;;;;;;;6256861;28;20146;-60
2023/06/20 09:27:25;;;;;;;28.43;19.27;;;;;;;;;;6255868;28;20068;-59
2023/06/20 09:30:30;;;;;;;27.35;17.55;;;;;;;;;;6256326;28;20037;-59
2023/06/20 09:33:30;;;;;;;27.27;17.98;;;;;;;;;;6257096;28;20416;-59
2023/06/20 09:36:31;;;;;;;24.58;17.17;;;;;;;;;;6254842;28;20041;-58
2023/06/20 09:39:32;;;;;;;26.13;17.73;;;;;;;;;;6255539;28;20056;-58
2023/06/20 09:42:32;;;;;;;30.02;18.73;;;;;;;;;;6256996;28;20055;-59
2023/06/20 09:45:33;;;;;;;29.30;18.37;;;;;;;;;;6256340;28;20454;-59
2023/06/20 09:48:35;;;;;;;28.10;18.05;;;;;;;;;;6254716;28;20041;-59
2023/06/20 09:51:49;;;;;;;27.60;18.77;;;;;;;;;;6257463;28;20080;-59
2023/06/20 09:54:55;;;;;;;30.42;19.55;;;;;;;;;;6257314;28;20037;-59
2023/06/20 09:57:58;;;;;;;26.95;18.55;;;;;;;;;;6257110;28;20117;-59
2023/06/20 10:01:01;;;;;;;27.30;18.60;;;;;;;;;;6256058;28;20049;-59
2023/06/20 10:04:02;;;;;;;26.92;18.58;;;;;;;;;;6255949;28;20075;-59
2023/06/20 10:07:04;;;;;;;27.75;19.83;;;;;;;;;;6256215;28;20037;-59
2023/06/20 10:10:05;;;;;;;30.98;19.25;;;;;;;;;;6253887;28;20535;-58
2023/06/20 10:13:06;;;;;;;28.75;19.70;;;;;;;;;;6255420;28;20052;-59
2023/06/20 10:16:07;;;;;;;31.13;20.58;;;;;;;;;;6253844;28;20108;-59
2023/06/20 10:19:18;;;;;;;28.75;19.52;;;;;;;;;;6255956;28;20059;-59
2023/06/20 10:22:43;;;;;;;31.27;18.70;;;;;;;;;;6254647;28;20103;-60
2023/06/20 10:25:52;;;;;;;24.95;18.63;;;;;;;;;;6261557;28;20070;-59
2023/06/20 10:28:56;;;;;;;26.20;17.77;;;;;;;;;;6252285;28;20464;-59
2023/06/20 10:32:07;;;;;;;29.75;17.92;;;;;;;;;;6251947;28;20049;-59
2023/06/20 10:35:15;;;;;;;29.65;18.52;;;;;;;;;;6247189;28;20077;-59
2023/06/20 10:38:16;;;;;;;26.58;17.58;;;;;;;;;;6241571;28;20774;-59
2023/06/20 10:41:24;;;;;;;29.42;18.30;;;;;;;;;;6244223;28;20058;-58
2023/06/20 10:44:29;;;;;;;27.27;17.98;;;;;;;;;;6245732;28;20041;-59
2023/06/20 10:47:29;;;;;;;29.67;19.58;;;;;;;;;;6245636;28;20072;-60
2023/06/20 10:50:30;;;;;;;32.78;19.92;;;;;;;;;;6244895;28;20041;-58
2023/06/20 10:53:31;;;;;;;26.85;19.15;;;;;;;;;;6244225;28;20045;-55
2023/06/20 10:56:34;;;;;;;;;;;;;;;;;;6247613;28;20053;-59
2023/06/20 10:59:34;;;;;;;28.60;18.52;;;;;;;;;;6239634;28;20015;-59
2023/06/20 11:02:35;;;;;;;29.95;19.10;;;;;;;;;;6245482;28;20160;-59
2023/06/20 11:05:36;;;;;;;31.37;19.40;;;;;;;;;;6245883;28;20359;-58
2023/06/20 11:08:42;;;;;;;27.10;18.45;;;;;;;;;;6242932;28;20835;-59
2023/06/20 11:11:43;;;;;;;30.45;18.90;;;;;;;;;;6247315;28;20049;-58
2023/06/20 11:14:44;;;;;;;27.27;18.48;;;;;;;;;;6244606;28;20045;-58
2023/06/20 11:17:44;;;;;;;25.83;18.67;;;;;;;;;;6243109;28;20603;-60
2023/06/20 11:20:45;;;;;;;30.27;19.33;;;;;;;;;;6243292;28;20094;-58
2023/06/20 11:23:46;;;;;;;27.40;18.73;;;;;;;;;;6244017;28;20057;-56
2023/06/20 11:26:46;;;;;;;29.85;19.42;;;;;;;;;;6243730;28;20126;-55
2023/06/20 11:29:47;;;;;;;31.35;19.73;;;;;;;;;;6242130;28;20041;-59
2023/06/20 11:33:03;;;;;;;29.50;19.08;;;;;;;;;;6245174;28;20160;-59
2023/06/20 11:36:04;;;;;;;28.55;19.35;;;;;;;;;;6244992;28;20154;-59
2023/06/20 11:39:07;;;;;;;30.05;20.25;;;;;;;;;;6243660;28;20048;-60
2023/06/20 11:42:17;;;;;;;29.98;19.70;;;;;;;;;;6242999;28;20057;-59
2023/06/20 11:45:24;;;;;;;29.80;19.85;;;;;;;;;;6241415;28;20044;-59
2023/06/20 11:48:24;;;;;;;30.73;19.48;;;;;;;;;;6243287;28;20057;-59
2023/06/20 11:51:26;;;;;;;31.00;20.52;;;;;;;;;;6244903;28;20048;-59
2023/06/20 11:54:27;;;;;;;27.77;19.88;;;;;;;;;;6245451;28;20097;-60
2023/06/20 11:57:30;;;;;;;36.45;19.88;;;;;;;;;;6243786;28;20477;-59
2023/06/20 12:00:31;;;;;;;27.98;20.83;;;;;;;;;;6242536;28;20475;-60
2023/06/20 12:03:32;;;;;;;29.17;21.08;;;;;;;;;;6244277;28;20059;-58
2023/06/20 12:06:34;;;;;;;33.53;21.33;;;;;;;;;;6251985;28;20045;-56
2023/06/20 12:09:42;;;;;;;28.52;21.83;;;;;;;;;;6245354;28;20809;-58
2023/06/20 12:12:43;;;;;;;32.97;21.73;;;;;;;;;;6247292;28;20118;-58
2023/06/20 12:15:45;;;;;;;29.80;20.75;;;;;;;;;;6247460;28;20152;-59
2023/06/20 12:18:47;;;;;;;34.05;22.70;;;;;;;;;;6245810;28;20611;-59
2023/06/20 12:21:49;;;;;;;36.97;22.23;;;;;;;;;;6249169;28;20053;-59
2023/06/20 12:24:50;;;;;;;37.28;23.05;;;;;;;;;;6247390;28;20049;-59
2023/06/20 12:27:51;;;;;;;32.55;21.90;;;;;;;;;;6248361;28;20334;-59
2023/06/20 12:30:51;;;;;;;33.40;22.48;;;;;;;;;;6248344;28;20492;-59
2023/06/20 12:33:52;;;;;;;31.50;21.05;;;;;;;;;;6245873;28;20045;-59
2023/06/20 12:36:52;;;;;;;34.93;21.70;;;;;;;;;;6248456;28;20045;-58
2023/06/20 12:39:53;;;;;;;35.90;21.75;;;;;;;;;;6244339;28;20056;-60
2023/06/20 12:42:53;;;;;;;34.58;22.10;;;;;;;;;;6248650;28;20046;-59
2023/06/20 12:45:57;;;;;;;31.17;21.58;;;;;;;;;;6246754;28;20063;-59
2023/06/20 12:48:59;;;;;;;35.00;21.08;;;;;;;;;;6244710;28;20049;-60
2023/06/20 12:52:00;;;;;;;34.45;22.35;;;;;;;;;;6248872;28;20456;-59
2023/06/20 12:55:00;;;;;;;36.83;22.23;;;;;;;;;;6249191;28;20052;-59
2023/06/20 12:58:01;;;;;;;34.65;23.17;;;;;;;;;;6246595;28;20126;-58
2023/06/20 13:01:03;;;;;;;39.03;22.33;;;;;;;;;;6247977;28;20084;-58
2023/06/20 13:04:04;;;;;;;33.40;21.77;;;;;;;;;;6250556;28;20210;-58
2023/06/20 13:07:05;;;;;;;36.40;22.83;;;;;;;;;;6249741;28;20103;-59
2023/06/20 13:10:06;;;;;;;33.17;22.08;;;;;;;;;;6248078;28;20056;-58
2023/06/20 13:13:07;;;;;;;30.80;21.88;;;;;;;;;;6246548;28;20044;-59
2023/06/20 13:16:07;;;;;;;35.25;22.08;;;;;;;;;;6244497;28;20182;-57
2023/06/20 13:19:08;;;;;;;35.53;21.42;;;;;;;;;;6245717;28;20069;-59
2023/06/20 13:22:08;;;;;;;;;;;;;;;;;;6246873;28;20059;-59
2023/06/20 13:25:09;;;;;;;35.60;23.10;;;;;;;;;;6245976;28;19929;-58
2023/06/20 13:28:10;;;;;;;29.85;21.27;;;;;;;;;;6246110;28;20091;-59
2023/06/20 13:31:11;;;;;;;34.45;21.98;;;;;;;;;;6247327;28;20052;-59
2023/06/20 13:34:12;;;;;;;34.10;22.25;;;;;;;;;;6246048;28;20438;-59
2023/06/20 13:37:12;;;;;;;;;;;;;;;;;;6249422;28;20060;-59
2023/06/20 13:40:13;;;;;;;29.88;21.63;;;;;;;;;;6246436;28;19925;-59
2023/06/20 13:43:13;;;;;;;35.90;22.95;;;;;;;;;;6245294;28;20040;-60
2023/06/20 13:46:14;;;;;;;;;;;;;;;;;;6247737;28;20128;-59
2023/06/20 13:49:15;;;;;;;34.17;22.47;;;;;;;;;;6246530;28;20520;-59
2023/06/20 13:52:16;;;;;;;32.78;22.73;;;;;;;;;;6248355;28;20997;-58
2023/06/20 13:55:16;;;;;;;38.30;23.80;;;;;;;;;;6246590;28;20126;-59
2023/06/20 13:58:17;;;;;;;;;;;;;;;;;;6244941;28;20128;-59
2023/06/20 14:01:18;;;;;;;35.50;22.23;;;;;;;;;;6246082;28;19930;-59
2023/06/20 14:04:19;;;;;;;30.95;22.15;;;;;;;;;;6247476;28;20045;-59
2023/06/20 14:07:20;;;;;;;;;;;;;;;;;;6247534;28;20053;-58
2023/06/20 14:10:21;;;;;;;32.33;22.00;;;;;;;;;;6246528;28;19978;-60
2023/06/20 14:13:21;;;;;;;33.30;22.15;;;;;;;;;;6247218;28;20416;-58
2023/06/20 14:16:22;;;;;;;;;;;;;;;;;;6249369;28;20124;-59
2023/06/20 14:19:23;;;;;;;33.53;22.33;;;;;;;;;;6245261;28;20757;-59
2023/06/20 14:22:23;;;;;;;;;;;;;;;;;;6246648;28;20061;-62
2023/06/20 14:25:24;;;;;;;38.80;23.17;;;;;;;;;;6247106;28;20291;-59
2023/06/20 14:28:27;;;;;;;38.67;22.73;;;;;;;;;;6247437;28;20049;-59
2023/06/20 14:31:27;;;;;;;34.08;22.85;;;;;;;;;;6247651;28;20041;-58
2023/06/20 14:34:28;;;;;;;35.67;23.98;;;;;;;;;;6250996;28;20060;-58
2023/06/20 14:37:29;;;;;;;41.42;23.35;;;;;;;;;;6257005;28;20041;-58
2023/06/20 14:40:29;;;;;;;34.85;23.17;;;;;;;;;;6254793;28;20496;-59
2023/06/20 14:43:30;;;;;;;32.22;22.30;;;;;;;;;;6254972;28;20428;-57
2023/06/20 14:46:30;;;;;;;31.63;21.75;;;;;;;;;;6256566;28;20409;-59
2023/06/20 14:49:31;;;;;;;32.60;22.38;;;;;;;;;;6254975;28;20423;-58
2023/06/20 14:52:32;;;;;;;;;;;;;;;;;;6256213;28;20045;-60
2023/06/20 14:55:32;;;;;;;33.23;22.87;;;;;;;;;;6255591;28;19924;-58
2023/06/20 14:58:33;;;;;;;32.33;22.40;;;;;;;;;;6253451;28;20139;-60
2023/06/20 15:01:34;;;;;;;30.38;21.48;;;;;;;;;;6254559;28;20053;-57
2023/06/20 15:04:36;;;;;;;34.55;22.42;;;;;;;;;;6254213;28;20460;-57
2023/06/20 15:07:36;;;;;;;33.40;21.60;;;;;;;;;;6254579;28;20075;-57
2023/06/20 15:10:37;;;;;;;;;;;;;;;;;;6254177;28;20133;-58
2023/06/20 15:13:37;;;;;;;32.50;22.07;;;;;;;;;;6253129;28;19959;-54
2023/06/20 15:16:38;;;;;;;35.38;22.50;;;;;;;;;;6254990;28;20075;-56
2023/06/20 15:19:39;;;;;;;;;;;;;;;;;;6253161;28;20625;-57
2023/06/20 15:22:39;;;;;;;31.97;22.57;;;;;;;;;;6254376;28;19934;-55
2023/06/20 15:25:40;;;;;;;31.70;22.50;;;;;;;;;;6255118;28;20071;-58
2023/06/20 15:28:42;;;;;;;32.75;22.23;;;;;;;;;;6253981;28;20548;-55
2023/06/20 15:31:42;;;;;;;34.45;23.40;;;;;;;;;;6255042;28;20061;-57
2023/06/20 15:34:43;;;;;;;36.47;22.17;;;;;;;;;;6254509;28;20511;-59
2023/06/20 15:37:44;;;;;;;;;;;;;;;;;;6254900;28;20064;-55
2023/06/20 15:40:45;;;;;;;35.85;21.98;;;;;;;;;;6253663;28;19929;-58
2023/06/20 15:43:46;;;;;;;35.80;22.67;;;;;;;;;;6254716;28;20131;-58
2023/06/20 15:46:47;;;;;;;33.22;22.30;;;;;;;;;;6249404;28;20511;-57
2023/06/20 15:49:47;;;;;;;;;;;;;;;;;;6251892;28;20052;-54
2023/06/20 15:52:48;;;;;;;32.00;22.27;;;;;;;;;;6252224;28;20012;-57
2023/06/20 15:55:49;;;;;;;31.23;22.00;;;;;;;;;;6252971;28;20546;-59
2023/06/20 15:58:50;;;;;;;32.97;22.55;;;;;;;;;;6252249;28;20048;-58
2023/06/20 16:01:50;;;;;;;32.50;22.98;;;;;;;;;;6253055;28;20049;-58
2023/06/20 16:04:51;;;;;;;35.72;23.27;;;;;;;;;;6252399;28;20474;-59
2023/06/20 16:07:52;;;;;;;33.85;22.20;;;;;;;;;;6250664;28;20088;-58
2023/06/20 16:10:52;;;;;;;28.75;21.08;;;;;;;;;;6252133;28;20049;-58
2023/06/20 16:13:53;;;;;;;;;;;;;;;;;;6252336;28;20052;-58
2023/06/20 16:16:53;;;;;;;27.70;20.27;;;;;;;;;;6252925;28;19936;-59
2023/06/20 16:19:54;;;;;;;;;;;;;;;;;;6252091;28;20049;-60
2023/06/20 16:22:55;;;;;;;30.38;20.83;;;;;;;;;;6251159;28;19928;-59
2023/06/20 16:25:55;;;;;;;;;;;;;;;;;;6253193;28;20045;-59
2023/06/20 16:28:56;;;;;;;33.45;21.73;;;;;;;;;;6251852;28;19932;-60
2023/06/20 16:31:58;;;;;;;34.50;20.67;;;;;;;;;;6252701;28;20056;-58
2023/06/20 16:34:59;;;;;;;32.22;21.00;;;;;;;;;;6252740;28;20416;-60
2023/06/20 16:37:59;;;;;;;;;;;;;;;;;;6251802;28;20649;-59
2023/06/20 16:41:00;;;;;;;32.60;22.13;;;;;;;;;;6252614;28;19924;-59
2023/06/20 16:44:00;;;;;;;;;;;;;;;;;;6252973;28;20412;-58
2023/06/20 16:47:01;;;;;;;34.33;22.52;;;;;;;;;;6252252;28;20787;-58
2023/06/20 16:50:01;;;;;;;;;;;;;;;;;;6255449;28;20048;-57
2023/06/20 16:53:03;;;;;;;37.13;20.93;;;;;;;;;;6255334;28;19967;-59
2023/06/20 16:56:04;;;;;;;29.92;21.33;;;;;;;;;;6256771;28;20149;-60
2023/06/20 16:59:05;;;;;;;;;;;;;;;;;;6255399;28;20045;-58
2023/06/20 17:02:06;;;;;;;30.30;22.05;;;;;;;;;;6253923;28;19928;-59
2023/06/20 17:05:09;;;;;;;;;;;;;;;;;;6256147;28;20126;-58
2023/06/20 17:08:09;;;;;;;32.30;21.98;;;;;;;;;;6254750;28;19929;-58
2023/06/20 17:11:10;;;;;;;;;;;;;;;;;;6256026;28;20049;-56
2023/06/20 17:14:10;;;;;;;34.13;21.80;;;;;;;;;;6256598;28;19932;-58
2023/06/20 17:17:12;;;;;;;34.80;21.85;;;;;;;;;;6256567;28;20049;-58
2023/06/20 17:20:12;;;;;;;28.67;20.95;;;;;;;;;;6254587;28;20049;-58
2023/06/20 17:23:13;;;;;;;;;;;;;;;;;;6255236;28;20056;-57
2023/06/20 17:26:14;;;;;;;32.27;21.37;;;;;;;;;;6256246;28;19928;-57
2023/06/20 17:29:14;;;;;;;;;;;;;;;;;;6253322;28;20057;-57
2023/06/20 17:32:15;;;;;;;33.10;22.27;;;;;;;;;;6255027;28;19924;-57
2023/06/20 17:35:15;;;;;;;;;;;;;;;;;;6256927;28;20045;-59
2023/06/20 17:38:16;;;;;;;30.93;21.40;;;;;;;;;;6254444;28;20648;-60
2023/06/20 17:41:17;;;;;;;;;;;;;;;;;;6256465;28;20133;-57
2023/06/20 17:44:18;;;;;;;33.47;22.73;;;;;;;;;;6256510;28;19983;-59
2023/06/20 17:47:18;;;;;;;33.90;22.50;;;;;;;;;;6255630;28;20714;-59
2023/06/20 17:50:19;;;;;;;;;;;;;;;;;;6253486;28;20064;-58
2023/06/20 17:53:20;;;;;;;34.05;22.50;;;;;;;;;;6253670;28;20019;-59